createdAt,value
2022-10-20T00:00:50.219Z,99270.03
2022-10-20T00:03:53.000Z,99281.19
2022-10-20T00:06:54.620Z,99266.84
2022-10-20T00:09:56.346Z,99271.44
2022-10-20T00:12:57.981Z,99266.69
2022-10-20T00:16:00.578Z,99253.03
2022-10-20T00:19:02.340Z,99247.63
2022-10-20T00:22:04.141Z,99239.16
2022-10-20T00:25:06.338Z,99228.84
2022-10-20T00:28:08.337Z,99237.78
2022-10-20T00:31:10.208Z,99230.31
2022-10-20T00:34:11.874Z,99226.03
2022-10-20T00:37:13.574Z,99228.41
2022-10-20T00:40:15.416Z,99229.91
2022-10-20T00:43:17.592Z,99221.38
2022-10-20T00:46:28.633Z,99201.75
2022-10-20T00:49:30.340Z,99207.03
2022-10-20T00:52:32.219Z,99207.16
2022-10-20T00:55:37.647Z,99204.38
2022-10-20T00:58:39.493Z,99208.66
2022-10-20T01:01:43.083Z,99201.50
2022-10-20T01:04:44.833Z,99211.19
2022-10-20T01:07:46.727Z,99194.63
2022-10-20T01:11:03.503Z,99200.94
2022-10-20T01:14:07.886Z,99200.94
2022-10-20T01:17:46.966Z,99212.34
2022-10-20T01:21:17.119Z,99208.88
2022-10-20T01:25:13.665Z,99189.38
2022-10-20T01:28:20.288Z,99209.31
2022-10-20T01:31:42.139Z,99210.13
2022-10-20T01:35:07.210Z,99194.41
2022-10-20T01:38:20.647Z,99206.28
2022-10-20T01:41:34.025Z,99209.97
2022-10-20T01:44:38.021Z,99194.75
2022-10-20T01:47:41.421Z,99187.16
2022-10-20T01:50:46.391Z,99177.13
2022-10-20T01:53:48.103Z,99165.81
2022-10-20T01:56:58.809Z,99167.03
2022-10-20T02:00:06.315Z,99159.16
2022-10-20T02:03:49.528Z,99153.09
2022-10-20T02:07:07.912Z,99166.97
2022-10-20T02:10:32.799Z,99165.09
2022-10-20T02:13:38.585Z,99160.31
2022-10-20T02:16:48.649Z,99157.38
2022-10-20T02:19:53.563Z,99152.75
2022-10-20T02:22:57.875Z,99154.91
2022-10-20T02:26:00.598Z,99157.25
2022-10-20T02:29:14.110Z,99171.31
2022-10-20T02:32:17.411Z,99179.97
2022-10-20T02:35:22.226Z,99169.28
2022-10-20T02:38:24.031Z,99169.28
2022-10-20T02:41:26.701Z,99180.09
2022-10-20T02:44:28.347Z,99171.66
2022-10-20T02:47:30.024Z,99175.00
2022-10-20T02:50:31.690Z,99168.88
2022-10-20T02:53:33.672Z,99157.28
2022-10-20T02:56:35.391Z,99170.72
2022-10-20T02:59:37.049Z,99165.44
2022-10-20T03:02:38.677Z,99139.91
2022-10-20T03:05:44.319Z,99144.13
2022-10-20T03:08:46.060Z,99148.75
2022-10-20T03:11:47.726Z,99159.00
2022-10-20T03:14:49.357Z,99152.84
2022-10-20T03:17:50.952Z,99141.38
2022-10-20T03:20:53.892Z,99142.84
2022-10-20T03:23:55.997Z,99140.78
2022-10-20T03:26:57.707Z,99140.47
2022-10-20T03:29:59.302Z,99125.34
2022-10-20T03:33:01.074Z,99136.47
2022-10-20T03:36:03.031Z,99137.16
2022-10-20T03:39:04.721Z,99151.66
2022-10-20T03:42:06.331Z,99137.34
2022-10-20T03:45:08.413Z,99134.56
2022-10-20T03:48:11.322Z,99129.78
2022-10-20T03:51:14.699Z,99118.34
2022-10-20T03:54:16.295Z,99118.75
2022-10-20T03:57:18.828Z,99115.13
2022-10-20T04:00:20.604Z,99109.78
2022-10-20T04:03:22.234Z,99121.47
2022-10-20T04:06:24.353Z,99108.38
2022-10-20T04:09:25.986Z,99115.19
2022-10-20T04:12:28.256Z,99114.91
2022-10-20T04:15:30.751Z,99101.91
2022-10-20T04:18:32.706Z,99104.13
2022-10-20T04:21:34.389Z,99094.00
2022-10-20T04:24:36.141Z,99088.03
2022-10-20T04:27:39.766Z,99079.88
2022-10-20T04:30:42.728Z,99093.06
2022-10-20T04:33:44.419Z,99096.50
2022-10-20T04:36:46.081Z,99088.25
2022-10-20T04:39:47.703Z,99078.78
2022-10-20T04:42:49.275Z,99074.88
2022-10-20T04:45:51.142Z,99069.75
2022-10-20T04:48:53.798Z,99047.91
2022-10-20T04:52:00.652Z,99041.59
2022-10-20T04:55:02.897Z,99058.25
2022-10-20T04:58:04.584Z,99070.09
2022-10-20T05:01:09.478Z,99070.03
2022-10-20T05:04:11.434Z,99077.28
2022-10-20T05:07:13.096Z,99075.38
2022-10-20T05:10:14.758Z,99083.81
2022-10-20T05:13:16.434Z,99086.19
2022-10-20T05:16:18.770Z,99095.25
2022-10-20T05:19:20.567Z,99094.34
2022-10-20T05:22:22.399Z,99101.47
2022-10-20T05:25:36.079Z,99129.59
2022-10-20T05:28:39.730Z,99112.28
2022-10-20T05:31:43.716Z,99121.72
2022-10-20T05:34:45.386Z,99099.25
2022-10-20T05:37:47.156Z,99087.16
2022-10-20T05:40:48.953Z,99079.16
2022-10-20T05:43:52.868Z,99069.13
2022-10-20T05:46:54.803Z,99063.53
2022-10-20T05:49:56.661Z,99070.03
2022-10-20T05:52:58.511Z,99061.59
2022-10-20T05:56:05.627Z,99057.03
2022-10-20T05:59:07.706Z,99051.50
2022-10-20T06:02:11.301Z,99047.81
2022-10-20T06:05:13.504Z,99058.94
2022-10-20T06:08:15.230Z,99086.63
2022-10-20T06:11:17.946Z,99094.25
2022-10-20T06:14:22.353Z,99104.72
2022-10-20T06:17:26.637Z,99105.84
2022-10-20T06:20:28.277Z,99105.97
2022-10-20T06:23:30.397Z,99135.03
2022-10-20T06:26:34.386Z,99141.88
2022-10-20T06:29:36.037Z,99127.72
2022-10-20T06:32:37.923Z,99120.28
2022-10-20T06:35:39.804Z,99120.41
2022-10-20T06:38:42.141Z,99101.28
2022-10-20T06:41:47.450Z,99100.56
2022-10-20T06:44:55.151Z,99102.34
2022-10-20T06:47:56.808Z,99087.22
2022-10-20T06:51:07.575Z,99084.44
2022-10-20T06:54:09.500Z,99083.97
2022-10-20T06:57:11.048Z,99082.88
2022-10-20T07:00:13.100Z,99084.56
2022-10-20T07:03:14.708Z,99074.31
2022-10-20T07:06:23.423Z,99066.44
2022-10-20T07:09:25.192Z,99066.91
2022-10-20T07:12:26.813Z,99092.50
2022-10-20T07:15:54.907Z,99134.97
2022-10-20T07:18:57.404Z,99115.84
2022-10-20T07:21:58.977Z,99103.75
2022-10-20T07:25:06.084Z,99081.78
2022-10-20T07:28:08.141Z,99082.25
2022-10-20T07:31:13.733Z,99090.63
2022-10-20T07:34:26.284Z,99108.25
2022-10-20T07:37:28.993Z,99102.78
2022-10-20T07:40:31.157Z,99140.84
2022-10-20T07:43:32.998Z,99140.00
2022-10-20T07:46:34.981Z,99146.53
2022-10-20T07:49:44.876Z,99172.16
2022-10-20T07:52:53.399Z,99183.06
2022-10-20T07:55:55.106Z,99180.44
2022-10-20T07:58:57.690Z,99185.31
2022-10-20T08:02:00.152Z,99188.69
2022-10-20T08:05:02.508Z,99181.56
2022-10-20T08:08:04.277Z,99189.59
2022-10-20T08:11:05.945Z,99204.78
2022-10-20T08:14:07.786Z,99208.03
2022-10-20T08:17:09.409Z,99207.06
2022-10-20T08:20:13.386Z,99202.31
2022-10-20T08:23:16.164Z,99184.09
2022-10-20T08:26:24.590Z,99182.41
2022-10-20T08:29:26.227Z,99169.81
2022-10-20T08:32:27.834Z,99161.00
2022-10-20T08:35:29.531Z,99171.69
2022-10-20T08:38:31.766Z,99167.50
2022-10-20T08:41:55.273Z,99169.09
2022-10-20T08:45:00.632Z,99176.97
2022-10-20T08:48:02.712Z,99176.88
2022-10-20T08:51:04.627Z,99174.00
2022-10-20T08:54:12.888Z,99181.97
2022-10-20T08:57:24.790Z,99158.56
2022-10-20T09:00:26.995Z,99150.47
2022-10-20T09:03:31.558Z,99189.56
2022-10-20T09:06:34.761Z,99187.56
2022-10-20T09:09:37.012Z,99189.09
2022-10-20T09:12:42.444Z,99180.97
2022-10-20T09:15:44.199Z,99176.69
2022-10-20T09:18:46.651Z,99171.75
2022-10-20T09:21:53.408Z,99162.53
2022-10-20T09:24:57.592Z,99169.63
2022-10-20T09:27:59.268Z,99165.97
2022-10-20T09:31:00.942Z,99162.94
2022-10-20T09:34:25.335Z,99148.78
2022-10-20T09:37:27.322Z,99142.38
2022-10-20T09:40:29.499Z,99118.59
2022-10-20T09:43:31.822Z,99113.97
2022-10-20T09:46:45.679Z,99109.41
2022-10-20T09:49:51.518Z,99126.00
2022-10-20T09:52:53.966Z,99127.63
2022-10-20T09:55:55.921Z,99134.84
2022-10-20T09:59:00.531Z,99147.28
2022-10-20T10:02:22.169Z,99140.69
2022-10-20T10:05:33.472Z,99142.66
2022-10-20T10:08:45.438Z,99147.63
2022-10-20T10:12:00.222Z,99177.63
2022-10-20T10:15:08.321Z,99146.78
2022-10-20T10:18:19.296Z,99145.84
2022-10-20T10:21:59.867Z,99127.66
2022-10-20T10:25:02.561Z,99118.00
2022-10-20T10:28:19.909Z,99116.72
2022-10-20T10:31:25.455Z,99114.75
2022-10-20T10:34:58.094Z,99140.47
2022-10-20T10:38:00.487Z,99118.06
2022-10-20T10:41:26.641Z,99104.34
2022-10-20T10:44:43.372Z,99107.53
2022-10-20T10:48:05.313Z,99094.28
2022-10-20T10:51:34.702Z,99085.22
2022-10-20T10:55:03.530Z,99089.78
2022-10-20T10:58:20.166Z,99072.50
2022-10-20T11:01:27.732Z,99082.94
2022-10-20T11:04:47.988Z,99090.25
2022-10-20T11:07:57.976Z,99092.66
2022-10-20T11:11:17.779Z,99104.50
2022-10-20T11:14:43.836Z,99109.75
2022-10-20T11:17:51.297Z,99103.13
2022-10-20T11:20:59.883Z,99085.25
2022-10-20T11:24:16.647Z,99084.66
2022-10-20T11:27:22.556Z,99066.91
2022-10-20T11:30:27.334Z,99057.38
2022-10-20T11:33:42.177Z,99057.53
2022-10-20T11:36:49.838Z,99048.34
2022-10-20T11:40:16.619Z,99040.41
2022-10-20T11:43:32.331Z,99050.38
2022-10-20T11:46:40.409Z,99046.22
2022-10-20T11:49:42.356Z,99057.38
2022-10-20T11:53:26.541Z,99042.72
2022-10-20T11:56:52.527Z,99041.44
2022-10-20T12:00:15.550Z,99038.81
2022-10-20T12:03:34.997Z,99027.38
2022-10-20T12:07:05.931Z,99019.72
2022-10-20T12:10:37.026Z,99013.91
2022-10-20T12:14:10.851Z,99005.00
2022-10-20T12:17:16.495Z,99012.69
2022-10-20T12:20:21.116Z,99014.16
2022-10-20T12:23:45.128Z,99013.19
2022-10-20T12:27:07.419Z,99010.47
2022-10-20T12:30:18.137Z,99015.78
2022-10-20T12:33:34.709Z,99012.13
2022-10-20T12:36:39.582Z,99015.28
2022-10-20T12:39:41.547Z,99014.31
2022-10-20T12:42:49.422Z,99026.28
2022-10-20T12:45:51.515Z,99019.66
2022-10-20T12:49:00.022Z,99039.47
2022-10-20T12:52:04.494Z,99034.03
2022-10-20T12:55:15.603Z,99032.75
2022-10-20T12:58:17.246Z,99041.19
2022-10-20T13:01:19.008Z,99023.06
2022-10-20T13:04:52.144Z,99031.13
2022-10-20T13:07:54.353Z,99022.06
2022-10-20T13:10:58.740Z,99017.19
2022-10-20T13:14:13.428Z,99011.84
2022-10-20T13:17:45.700Z,99004.03
2022-10-20T13:20:57.516Z,99007.34
2022-10-20T13:24:02.206Z,98995.09
2022-10-20T13:27:08.865Z,99002.63
2022-10-20T13:30:18.946Z,98992.59
2022-10-20T13:34:03.089Z,98992.34
2022-10-20T13:37:30.354Z,99014.38
2022-10-20T13:40:38.016Z,99023.94
2022-10-20T13:43:48.421Z,99021.44
2022-10-20T13:47:17.104Z,99005.91
2022-10-20T13:50:22.417Z,99017.38
2022-10-20T13:53:41.437Z,99001.50
2022-10-20T13:56:47.572Z,98998.53
2022-10-20T13:59:56.892Z,99003.88
2022-10-20T14:03:15.913Z,98987.13
2022-10-20T14:06:37.335Z,98981.59
2022-10-20T14:09:45.231Z,98975.72
2022-10-20T14:12:49.325Z,98979.22
2022-10-20T14:15:54.967Z,98975.22
2022-10-20T14:19:11.388Z,98963.75
2022-10-20T14:22:25.356Z,98982.81
2022-10-20T14:25:28.405Z,98986.25
2022-10-20T14:28:34.867Z,98963.91
2022-10-20T14:31:36.772Z,98985.66
2022-10-20T14:34:54.704Z,98994.88
2022-10-20T14:38:02.133Z,99016.56
2022-10-20T14:41:06.017Z,99027.34
2022-10-20T14:44:17.411Z,99041.94
2022-10-20T14:47:34.924Z,99046.31
2022-10-20T14:50:40.869Z,99049.13
2022-10-20T14:53:42.632Z,99065.03
2022-10-20T14:56:46.633Z,99082.81
2022-10-20T14:59:55.987Z,99068.91
2022-10-20T15:03:01.664Z,99031.38
2022-10-20T15:06:04.115Z,99023.72
2022-10-20T15:09:06.053Z,99006.38
2022-10-20T15:12:28.293Z,99002.44
2022-10-20T15:15:37.917Z,99006.25
2022-10-20T15:18:40.181Z,98986.31
2022-10-20T15:21:41.840Z,98975.06
2022-10-20T15:24:44.659Z,98974.59
2022-10-20T15:27:46.416Z,98992.94
2022-10-20T15:30:48.301Z,98984.50
2022-10-20T15:33:51.203Z,98984.22
2022-10-20T15:36:55.004Z,98981.34
2022-10-20T15:39:56.631Z,98957.25
2022-10-20T15:42:58.267Z,98940.19
2022-10-20T15:46:00.819Z,98932.19
2022-10-20T15:49:03.400Z,98939.72
2022-10-20T15:52:05.679Z,98945.91
2022-10-20T15:55:29.068Z,98948.94
2022-10-20T15:58:30.729Z,98950.09
2022-10-20T16:01:32.578Z,98948.94
2022-10-20T16:04:34.454Z,98939.16
2022-10-20T16:07:36.247Z,98934.13
2022-10-20T16:10:39.049Z,98925.19
2022-10-20T16:13:40.750Z,98929.38
2022-10-20T16:16:44.831Z,98919.22
2022-10-20T16:19:46.477Z,98909.22
2022-10-20T16:22:48.180Z,98906.94
2022-10-20T16:25:49.974Z,98903.06
2022-10-20T16:28:51.578Z,98910.78
2022-10-20T16:31:53.199Z,98909.50
2022-10-20T16:34:55.845Z,98904.97
2022-10-20T16:37:57.848Z,98934.34
2022-10-20T16:41:01.490Z,98933.59
2022-10-20T16:44:06.536Z,98924.22
2022-10-20T16:47:08.359Z,98923.03
2022-10-20T16:50:09.989Z,98927.72
2022-10-20T16:53:12.109Z,98939.72
2022-10-20T16:56:16.691Z,98936.66
2022-10-20T16:59:21.756Z,98911.66
2022-10-20T17:02:23.450Z,98925.72
2022-10-20T17:05:26.541Z,98920.00
2022-10-20T17:08:30.550Z,98918.38
2022-10-20T17:11:32.812Z,98937.94
2022-10-20T17:14:34.710Z,98930.97
2022-10-20T17:17:36.616Z,98913.84
2022-10-20T17:20:38.395Z,98891.03
2022-10-20T17:23:42.999Z,98899.00
2022-10-20T17:26:44.711Z,98906.34
2022-10-20T17:29:47.443Z,98903.34
2022-10-20T17:32:49.106Z,98899.56
2022-10-20T17:35:50.763Z,98905.03
2022-10-20T17:39:00.995Z,98900.78
2022-10-20T17:42:02.629Z,98881.91
2022-10-20T17:45:04.648Z,98874.03
2022-10-20T17:48:06.990Z,98884.69
2022-10-20T17:51:17.720Z,98906.91
2022-10-20T17:54:20.510Z,98920.78
2022-10-20T17:57:22.142Z,98925.41
2022-10-20T18:00:37.727Z,98905.38
2022-10-20T18:03:47.498Z,98906.94
2022-10-20T18:06:49.372Z,98891.69
2022-10-20T18:09:51.150Z,98902.34
2022-10-20T18:12:52.909Z,98905.63
2022-10-20T18:15:54.554Z,98903.03
2022-10-20T18:19:00.283Z,98913.94
2022-10-20T18:22:02.235Z,98912.59
2022-10-20T18:25:05.195Z,98917.56
2022-10-20T18:28:06.857Z,98892.06
2022-10-20T18:31:14.797Z,98896.59
2022-10-20T18:34:20.491Z,98875.13
2022-10-20T18:37:22.142Z,98880.94
2022-10-20T18:40:24.752Z,98869.44
2022-10-20T18:43:26.341Z,98875.22
2022-10-20T18:46:30.477Z,98878.38
2022-10-20T18:49:32.282Z,98883.47
2022-10-20T18:52:34.414Z,98874.50
2022-10-20T18:55:36.004Z,98883.47
2022-10-20T18:58:39.193Z,98892.59
2022-10-20T19:01:41.224Z,98875.84
2022-10-20T19:04:42.802Z,98865.25
2022-10-20T19:07:45.123Z,98875.34
2022-10-20T19:10:46.702Z,98876.16
2022-10-20T19:13:48.828Z,98867.63
2022-10-20T19:16:51.089Z,98854.56
2022-10-20T19:19:56.351Z,98865.16
2022-10-20T19:22:58.013Z,98853.94
2022-10-20T19:26:13.210Z,98860.19
2022-10-20T19:29:16.817Z,98851.75
2022-10-20T19:32:18.536Z,98845.78
2022-10-20T19:35:21.999Z,98833.50
2022-10-20T19:38:23.577Z,98846.72
2022-10-20T19:41:25.515Z,98864.38
2022-10-20T19:44:28.508Z,98868.66
2022-10-20T19:47:30.107Z,98860.16
2022-10-20T19:50:33.967Z,98856.56
2022-10-20T19:53:36.929Z,98837.56
2022-10-20T19:56:39.493Z,98850.44
2022-10-20T19:59:41.120Z,98846.75
2022-10-20T20:02:43.508Z,98867.94
2022-10-20T20:05:48.337Z,98872.94
2022-10-20T20:08:53.845Z,98867.50
2022-10-20T20:11:55.896Z,98848.69
2022-10-20T20:14:57.588Z,98865.81
2022-10-20T20:17:59.167Z,98851.03
2022-10-20T20:21:03.506Z,98863.44
2022-10-20T20:24:05.986Z,98876.94
2022-10-20T20:27:07.581Z,98852.81
2022-10-20T20:30:09.735Z,98843.94
2022-10-20T20:33:11.457Z,98844.34
2022-10-20T20:36:13.195Z,98872.84
2022-10-20T20:39:14.835Z,98870.06
2022-10-20T20:42:16.604Z,98860.19
2022-10-20T20:45:18.367Z,98874.63
2022-10-20T20:48:20.095Z,98859.78
2022-10-20T20:51:22.161Z,98863.63
2022-10-20T20:54:26.238Z,98853.56
2022-10-20T20:57:29.442Z,98875.94
2022-10-20T21:00:31.031Z,98876.75
2022-10-20T21:03:33.969Z,98877.59
2022-10-20T21:07:00.795Z,98870.59
2022-10-20T21:10:00.336Z,98851.53
2022-10-20T21:13:02.055Z,98841.16
2022-10-20T21:16:15.749Z,98843.25
2022-10-20T21:19:17.484Z,98828.66
2022-10-20T21:22:19.067Z,98842.69
2022-10-20T21:25:20.763Z,98817.69
2022-10-20T21:28:22.406Z,98820.19
2022-10-20T21:31:26.014Z,98822.56
2022-10-20T21:34:27.802Z,98834.00
2022-10-20T21:37:29.499Z,98849.00
2022-10-20T21:40:32.009Z,98845.09
2022-10-20T21:43:36.482Z,98842.81
2022-10-20T21:46:47.230Z,98843.31
2022-10-20T21:49:48.991Z,98816.00
2022-10-20T21:52:51.224Z,98814.75
2022-10-20T21:55:52.789Z,98813.31
2022-10-20T21:58:55.079Z,98802.47
2022-10-20T22:01:59.089Z,98797.31
2022-10-20T22:05:00.770Z,98813.63
2022-10-20T22:08:02.347Z,98809.13
2022-10-20T22:11:06.001Z,98801.25
2022-10-20T22:14:07.892Z,98783.22
2022-10-20T22:17:09.480Z,98777.06
2022-10-20T22:20:11.246Z,98769.13
2022-10-20T22:23:13.070Z,98770.28
2022-10-20T22:26:14.734Z,98765.06
2022-10-20T22:29:16.464Z,98759.56
2022-10-20T22:32:18.096Z,98767.28
2022-10-20T22:35:19.690Z,98788.28
2022-10-20T22:38:21.325Z,98800.09
2022-10-20T22:41:23.629Z,98794.38
2022-10-20T22:44:25.218Z,98813.97
2022-10-20T22:47:26.818Z,98817.47
2022-10-20T22:50:28.407Z,98857.78
2022-10-20T22:53:30.044Z,98909.81
2022-10-20T22:56:31.709Z,98913.53
2022-10-20T22:59:33.410Z,98922.69
2022-10-20T23:02:35.221Z,98936.19
2022-10-20T23:05:37.450Z,98915.63
2022-10-20T23:08:47.450Z,98955.59
2022-10-20T23:11:49.125Z,98942.38
2022-10-20T23:14:51.414Z,98932.28
2022-10-20T23:17:53.170Z,98918.63
2022-10-20T23:20:57.405Z,98905.53
2022-10-20T23:23:59.927Z,98915.63
2022-10-20T23:27:01.634Z,98897.81
2022-10-20T23:30:04.050Z,98901.03
2022-10-20T23:33:05.749Z,98892.88
2022-10-20T23:36:08.076Z,98877.59
2022-10-20T23:39:09.795Z,98852.03
2022-10-20T23:42:11.660Z,98860.22
2022-10-20T23:45:13.320Z,98878.25
2022-10-20T23:48:15.127Z,98879.47
2022-10-20T23:51:16.865Z,98851.41
2022-10-20T23:54:18.418Z,98860.50
2022-10-20T23:57:20.100Z,98863.72
